createdAt,value
2018-04-07T00:02:13.112Z,3.10
2018-04-07T00:04:40.811Z,2.80
2018-04-07T00:07:09.324Z,3.03
2018-04-07T00:09:37.029Z,2.77
2018-04-07T00:12:05.008Z,2.53
2018-04-07T00:14:32.721Z,2.90
2018-04-07T00:17:00.405Z,2.50
2018-04-07T00:19:28.140Z,2.60
2018-04-07T00:21:55.843Z,2.80
2018-04-07T00:24:24.332Z,2.80
2018-04-07T00:26:52.021Z,2.90
2018-04-07T00:29:19.753Z,2.67
2018-04-07T00:31:47.489Z,2.70
2018-04-07T00:34:15.180Z,2.73
2018-04-07T00:36:42.905Z,2.57
2018-04-07T00:39:10.579Z,2.93
2018-04-07T00:41:39.044Z,3.20
2018-04-07T00:44:06.742Z,3.10
2018-04-07T00:46:34.468Z,2.83
2018-04-07T00:49:02.211Z,2.63
2018-04-07T00:51:29.996Z,2.90
2018-04-07T00:53:57.765Z,2.80
2018-04-07T00:56:26.316Z,2.77
2018-04-07T00:58:54.897Z,2.70
2018-04-07T01:01:22.634Z,2.70
2018-04-07T01:03:51.201Z,2.80
2018-04-07T01:06:18.974Z,2.90
2018-04-07T01:08:47.839Z,3.27
2018-04-07T01:11:16.402Z,3.13
2018-04-07T01:13:44.168Z,3.07
2018-04-07T01:16:12.170Z,3.20
2018-04-07T01:18:39.924Z,3.07
2018-04-07T01:21:08.478Z,3.10
2018-04-07T01:23:36.313Z,3.00
2018-04-07T01:26:04.844Z,3.10
2018-04-07T01:28:33.451Z,3.17
2018-04-07T01:31:01.201Z,3.57
2018-04-07T01:33:29.015Z,3.40
2018-04-07T01:35:57.572Z,2.97
2018-04-07T01:38:25.386Z,3.00
2018-04-07T01:40:53.174Z,3.17
2018-04-07T01:43:20.987Z,3.20
2018-04-07T01:45:49.530Z,3.53
2018-04-07T01:48:17.289Z,3.03
2018-04-07T01:50:45.858Z,3.30
2018-04-07T01:53:13.610Z,3.50
2018-04-07T01:55:41.417Z,3.40
2018-04-07T01:58:09.230Z,3.10
2018-04-07T02:00:37.779Z,3.20
2018-04-07T02:03:05.570Z,3.23
2018-04-07T02:05:33.341Z,3.60
2018-04-07T02:08:01.885Z,3.03
2018-04-07T02:10:30.050Z,3.00
2018-04-07T02:12:57.996Z,3.40
2018-04-07T02:15:25.797Z,3.13
2018-04-07T02:17:53.594Z,3.37
2018-04-07T02:20:21.427Z,3.43
2018-04-07T02:22:50.206Z,3.23
2018-04-07T02:25:17.871Z,3.30
2018-04-07T02:27:45.523Z,3.47
2018-04-07T02:30:13.934Z,3.20
2018-04-07T02:32:41.607Z,3.30
2018-04-07T02:35:10.006Z,3.27
2018-04-07T02:37:38.415Z,3.67
2018-04-07T02:40:06.855Z,3.17
2018-04-07T02:42:35.294Z,3.40
2018-04-07T02:45:02.945Z,3.40
2018-04-07T02:47:31.348Z,3.30
2018-04-07T02:49:59.026Z,3.23
2018-04-07T02:52:26.644Z,3.23
2018-04-07T02:54:55.062Z,3.33
2018-04-07T02:57:22.683Z,3.37
2018-04-07T02:59:50.359Z,3.60
2018-04-07T03:02:18.009Z,3.50
2018-04-07T03:04:46.435Z,3.30
2018-04-07T03:07:14.089Z,3.33
2018-04-07T03:09:42.491Z,3.50
2018-04-07T03:12:10.951Z,3.17
2018-04-07T03:14:38.566Z,3.33
2018-04-07T03:17:06.238Z,3.37
2018-04-07T03:19:33.888Z,3.50
2018-04-07T03:22:14.191Z,3.30
2018-04-07T03:24:41.819Z,3.30
2018-04-07T03:27:09.457Z,3.60
2018-04-07T03:29:37.096Z,3.40
2018-04-07T03:32:05.284Z,3.30
2018-04-07T03:34:33.007Z,3.20
2018-04-07T03:37:00.708Z,2.70
2018-04-07T03:39:29.216Z,3.13
2018-04-07T03:41:57.708Z,3.07
2018-04-07T03:44:25.449Z,3.23
2018-04-07T03:46:53.285Z,3.53
2018-04-07T03:49:21.022Z,3.27
2018-04-07T03:51:49.527Z,3.53
2018-04-07T03:54:18.265Z,3.40
2018-04-07T03:56:45.988Z,3.97
2018-04-07T03:59:13.673Z,3.67
2018-04-07T04:04:32.559Z,3.40
2018-04-07T04:07:00.182Z,3.80
2018-04-07T04:09:27.844Z,3.73
2018-04-07T04:11:55.541Z,3.30
2018-04-07T04:14:23.320Z,3.50
2018-04-07T04:19:41.540Z,3.40
2018-04-07T04:22:09.174Z,3.67
2018-04-07T04:24:36.816Z,3.47
2018-04-07T04:27:04.468Z,3.63
2018-04-07T04:29:32.862Z,3.47
2018-04-07T04:32:00.547Z,3.73
2018-04-07T04:34:28.183Z,3.70
2018-04-07T04:36:55.879Z,3.90
2018-04-07T04:39:23.534Z,3.80
2018-04-07T04:41:51.956Z,3.80
2018-04-07T04:44:19.585Z,4.20
2018-04-07T04:46:47.243Z,3.67
2018-04-07T04:49:14.906Z,3.53
2018-04-07T04:51:42.498Z,3.77
2018-04-07T04:54:10.161Z,4.20
2018-04-07T04:56:37.791Z,3.50
2018-04-07T04:59:05.479Z,4.10
2018-04-07T05:01:33.175Z,3.73
2018-04-07T05:04:00.798Z,3.87
2018-04-07T05:06:29.230Z,3.60
2018-04-07T05:08:56.892Z,3.70
2018-04-07T05:11:25.298Z,4.07
2018-04-07T05:13:53.727Z,4.17
2018-04-07T05:16:21.382Z,4.50
2018-04-07T05:18:49.802Z,3.67
2018-04-07T05:21:17.418Z,3.90
2018-04-07T05:23:45.208Z,3.90
2018-04-07T05:26:12.845Z,3.47
2018-04-07T05:28:41.258Z,3.80
2018-04-07T05:31:09.639Z,3.60
2018-04-07T05:33:37.318Z,3.93
2018-04-07T05:36:04.956Z,3.87
2018-04-07T05:38:32.621Z,3.97
2018-04-07T05:41:01.064Z,4.00
2018-04-07T05:43:28.698Z,3.90
2018-04-07T05:45:56.388Z,3.87
2018-04-07T05:48:24.025Z,4.30
2018-04-07T05:50:51.722Z,4.23
2018-04-07T05:53:19.384Z,4.13
2018-04-07T05:55:47.004Z,3.43
2018-04-07T05:58:14.683Z,3.87
2018-04-07T06:00:42.315Z,4.50
2018-04-07T06:03:10.735Z,4.40
2018-04-07T06:05:38.336Z,4.20
2018-04-07T06:08:05.994Z,4.37
2018-04-07T06:10:34.406Z,5.10
2018-04-07T06:13:02.043Z,5.00
2018-04-07T06:15:29.709Z,4.40
2018-04-07T06:17:57.343Z,4.50
2018-04-07T06:20:24.995Z,4.03
2018-04-07T06:22:52.642Z,4.83
2018-04-07T06:25:20.304Z,4.27
2018-04-07T06:27:47.960Z,3.97
2018-04-07T06:30:15.587Z,3.83
2018-04-07T06:32:43.999Z,4.27
2018-04-07T06:35:11.644Z,3.80
2018-04-07T06:37:39.282Z,3.83
2018-04-07T06:40:08.017Z,3.63
2018-04-07T06:42:35.634Z,3.27
2018-04-07T06:45:03.297Z,3.20
2018-04-07T06:47:30.927Z,3.53
2018-04-07T06:49:58.554Z,3.47
2018-04-07T06:52:26.183Z,3.60
2018-04-07T06:54:54.613Z,3.60
2018-04-07T06:57:22.286Z,3.63
2018-04-07T06:59:49.915Z,3.80
2018-04-07T07:02:23.438Z,3.63
2018-04-07T07:04:51.835Z,3.70
2018-04-07T07:07:19.454Z,3.50
2018-04-07T07:09:47.046Z,3.63
2018-04-07T07:12:14.708Z,3.73
2018-04-07T07:14:43.134Z,3.20
2018-04-07T07:17:10.762Z,3.70
2018-04-07T07:19:38.421Z,3.40
2018-04-07T07:22:06.057Z,3.90
2018-04-07T07:24:33.704Z,3.70
2018-04-07T07:27:01.375Z,3.77
2018-04-07T07:29:29.026Z,3.50
2018-04-07T07:31:56.695Z,3.83
2018-04-07T07:34:24.311Z,3.30
2018-04-07T07:36:52.716Z,3.83
2018-04-07T07:39:21.130Z,3.37
2018-04-07T07:41:49.555Z,3.43
2018-04-07T07:44:17.326Z,3.50
2018-04-07T07:46:45.758Z,3.50
2018-04-07T07:49:13.435Z,3.53
2018-04-07T07:51:41.051Z,3.67
2018-04-07T07:54:08.704Z,3.60
2018-04-07T07:56:37.115Z,3.83
2018-04-07T07:59:05.568Z,3.43
2018-04-07T08:01:33.179Z,3.60
2018-04-07T08:04:00.825Z,3.30
2018-04-07T08:06:28.536Z,3.20
2018-04-07T08:08:56.195Z,3.53
2018-04-07T08:11:23.854Z,2.83
2018-04-07T08:13:53.043Z,3.03
2018-04-07T08:16:20.677Z,3.13
2018-04-07T08:18:49.073Z,2.90
2018-04-07T08:21:16.702Z,2.63
2018-04-07T08:23:44.340Z,3.20
2018-04-07T08:26:12.038Z,3.03
2018-04-07T08:28:39.675Z,3.17
2018-04-07T08:31:07.384Z,3.30
2018-04-07T08:33:35.096Z,3.03
2018-04-07T08:36:02.831Z,3.47
2018-04-07T08:38:30.511Z,2.97
2018-04-07T08:40:58.171Z,2.77
2018-04-07T08:43:26.640Z,3.03
2018-04-07T08:45:54.289Z,2.90
2018-04-07T08:48:21.950Z,2.97
2018-04-07T08:50:49.651Z,2.80
2018-04-07T08:53:17.299Z,2.93
2018-04-07T08:55:45.099Z,3.50
2018-04-07T08:58:12.731Z,3.13
2018-04-07T09:00:40.366Z,3.53
2018-04-07T09:03:07.982Z,2.90
2018-04-07T09:05:35.659Z,3.40
2018-04-07T09:08:03.295Z,3.67
2018-04-07T09:10:30.922Z,2.87
2018-04-07T09:12:58.571Z,3.10
2018-04-07T09:15:28.564Z,3.20
2018-04-07T09:17:56.259Z,2.87
2018-04-07T09:20:24.670Z,2.87
2018-04-07T09:22:53.111Z,3.07
2018-04-07T09:25:20.741Z,3.63
2018-04-07T09:27:48.373Z,3.10
2018-04-07T09:30:16.983Z,2.80
2018-04-07T09:32:46.841Z,3.20
2018-04-07T09:35:15.002Z,3.27
2018-04-07T09:37:43.794Z,3.20
2018-04-07T09:40:11.459Z,3.70
2018-04-07T09:42:39.113Z,3.47
2018-04-07T09:45:06.777Z,2.90
2018-04-07T09:47:34.475Z,3.10
2018-04-07T09:50:02.111Z,3.20
2018-04-07T09:52:29.759Z,3.00
2018-04-07T09:54:57.375Z,3.50
2018-04-07T09:57:25.026Z,3.70
2018-04-07T09:59:52.713Z,2.93
2018-04-07T10:02:21.248Z,3.47
2018-04-07T10:04:48.912Z,3.80
2018-04-07T10:07:16.544Z,3.30
2018-04-07T10:09:44.210Z,3.50
2018-04-07T10:12:11.837Z,3.50
2018-04-07T10:14:39.514Z,3.10
2018-04-07T10:17:07.907Z,2.83
2018-04-07T10:19:35.615Z,2.77
2018-04-07T10:22:04.291Z,3.00
2018-04-07T10:24:31.927Z,3.20
2018-04-07T10:26:59.581Z,2.70
2018-04-07T10:29:27.316Z,3.37
2018-04-07T10:31:55.023Z,2.93
2018-04-07T10:34:22.659Z,3.10
2018-04-07T10:36:50.303Z,2.90
2018-04-07T10:39:17.907Z,2.57
2018-04-07T10:41:45.609Z,3.03
2018-04-07T10:44:13.263Z,2.90
2018-04-07T10:46:40.899Z,3.10
2018-04-07T10:49:08.558Z,2.80
2018-04-07T10:51:36.203Z,2.83
2018-04-07T10:54:03.884Z,2.90
2018-04-07T10:56:32.349Z,2.90
2018-04-07T10:59:00.008Z,3.00
2018-04-07T11:01:27.673Z,2.53
2018-04-07T11:03:55.314Z,2.60
2018-04-07T11:06:22.971Z,2.70
2018-04-07T11:08:50.599Z,2.97
2018-04-07T11:11:18.299Z,2.80
2018-04-07T11:13:46.715Z,2.50
2018-04-07T11:16:15.116Z,2.73
2018-04-07T11:18:43.521Z,2.93
2018-04-07T11:21:11.927Z,2.90
2018-04-07T11:23:40.361Z,2.97
2018-04-07T11:26:08.029Z,2.87
2018-04-07T11:28:36.025Z,3.30
2018-04-07T11:31:03.750Z,2.87
2018-04-07T11:33:31.450Z,2.90
2018-04-07T11:35:59.105Z,2.83
2018-04-07T11:38:26.736Z,3.20
2018-04-07T11:40:54.398Z,3.00
2018-04-07T11:43:22.520Z,3.07
2018-04-07T11:45:50.190Z,3.13
2018-04-07T11:48:17.803Z,3.37
2018-04-07T11:50:46.243Z,3.20
2018-04-07T11:53:14.639Z,3.20
2018-04-07T11:55:42.677Z,3.47
2018-04-07T11:58:10.317Z,3.73
2018-04-07T12:00:37.946Z,3.37
2018-04-07T12:03:05.585Z,3.10
2018-04-07T12:05:33.217Z,3.70
2018-04-07T12:08:00.923Z,3.80
2018-04-07T12:10:28.591Z,3.00
2018-04-07T12:12:56.209Z,3.20
2018-04-07T12:15:24.152Z,3.40
2018-04-07T12:17:51.795Z,3.20
2018-04-07T12:20:19.519Z,3.63
2018-04-07T12:22:47.131Z,3.37
2018-04-07T12:25:14.799Z,3.60
2018-04-07T12:27:42.429Z,3.50
2018-04-07T12:30:10.102Z,3.50
2018-04-07T12:32:37.730Z,3.60
2018-04-07T12:35:05.435Z,3.37
2018-04-07T12:37:33.864Z,3.30
2018-04-07T12:40:01.507Z,3.10
2018-04-07T12:42:29.203Z,3.40
2018-04-07T12:44:56.833Z,3.20
2018-04-07T12:47:24.509Z,3.20
2018-04-07T12:49:52.106Z,3.27
2018-04-07T12:52:19.772Z,3.77
2018-04-07T12:54:47.430Z,3.50
2018-04-07T12:57:16.823Z,3.77
2018-04-07T12:59:44.450Z,3.40
2018-04-07T13:02:12.052Z,3.40
2018-04-07T13:04:40.506Z,3.47
2018-04-07T13:07:08.145Z,3.53
2018-04-07T13:09:36.569Z,3.47
2018-04-07T13:12:04.210Z,3.60
2018-04-07T13:14:32.501Z,3.87
2018-04-07T13:17:00.186Z,3.47
2018-04-07T13:19:27.844Z,3.20
2018-04-07T13:21:55.923Z,4.00
2018-04-07T13:24:23.519Z,3.70
2018-04-07T13:26:51.168Z,3.50
2018-04-07T13:29:19.586Z,3.63
2018-04-07T13:31:47.214Z,3.20
2018-04-07T13:34:14.863Z,3.60
2018-04-07T13:36:42.484Z,4.23
2018-04-07T13:39:10.154Z,3.60
2018-04-07T13:41:37.748Z,3.33
2018-04-07T13:44:05.431Z,3.70
2018-04-07T13:46:33.119Z,3.30
2018-04-07T13:49:00.785Z,3.30
2018-04-07T13:51:28.441Z,3.20
2018-04-07T13:53:56.550Z,3.23
2018-04-07T13:56:24.302Z,3.40
2018-04-07T13:58:51.906Z,3.40
2018-04-07T14:01:19.567Z,3.47
2018-04-07T14:03:47.233Z,3.37
2018-04-07T14:06:14.843Z,3.10
2018-04-07T14:08:42.541Z,3.00
2018-04-07T14:11:10.205Z,3.70
2018-04-07T14:13:37.850Z,3.53
2018-04-07T14:16:05.539Z,3.37
2018-04-07T14:18:33.244Z,2.93
2018-04-07T14:21:00.939Z,2.70
2018-04-07T14:23:29.362Z,3.30
2018-04-07T14:25:57.024Z,3.17
2018-04-07T14:28:24.654Z,3.00
2018-04-07T14:30:52.344Z,2.70
2018-04-07T14:33:19.981Z,3.30
2018-04-07T14:35:47.618Z,3.20
2018-04-07T14:38:15.248Z,3.10
2018-04-07T14:40:43.672Z,3.37
2018-04-07T14:43:11.327Z,3.40
2018-04-07T14:45:38.973Z,3.23
2018-04-07T14:48:06.627Z,2.80
2018-04-07T14:50:34.255Z,2.93
2018-04-07T14:53:01.915Z,3.40
2018-04-07T14:55:29.568Z,3.60
2018-04-07T14:57:57.199Z,3.47
2018-04-07T15:00:25.681Z,3.17
2018-04-07T15:02:53.599Z,3.30
2018-04-07T15:05:21.286Z,3.70
2018-04-07T15:07:48.933Z,4.67
2018-04-07T15:10:17.340Z,3.00
2018-04-07T15:12:45.751Z,3.20
2018-04-07T15:15:14.194Z,3.50
2018-04-07T15:17:41.842Z,5.10
2018-04-07T15:20:09.721Z,4.07
2018-04-07T15:22:37.390Z,2.87
2018-04-07T15:25:05.035Z,2.33
2018-04-07T15:27:32.715Z,2.60
2018-04-07T15:30:00.377Z,2.53
2018-04-07T15:32:29.235Z,2.27
2018-04-07T15:34:56.923Z,2.30
2018-04-07T15:37:24.638Z,2.30
2018-04-07T15:39:52.315Z,2.73
2018-04-07T15:42:20.013Z,2.30
2018-04-07T15:44:47.773Z,2.47
2018-04-07T15:47:15.456Z,2.10
2018-04-07T15:49:43.070Z,2.30
2018-04-07T15:52:10.759Z,2.60
2018-04-07T15:54:38.378Z,2.30
2018-04-07T15:57:07.006Z,2.40
2018-04-07T15:59:34.658Z,2.17
2018-04-07T16:02:26.171Z,2.57
2018-04-07T16:04:53.831Z,2.30
2018-04-07T16:07:21.541Z,3.70
2018-04-07T16:09:50.474Z,3.67
2018-04-07T16:12:18.239Z,2.83
2018-04-07T16:14:45.956Z,2.83
2018-04-07T16:17:13.703Z,2.30
2018-04-07T16:19:41.355Z,2.20
2018-04-07T16:22:28.200Z,2.43
2018-04-07T16:24:56.648Z,6.13
2018-04-07T16:27:24.399Z,2.70
2018-04-07T16:29:52.819Z,9.07
2018-04-07T16:32:20.520Z,2.90
2018-04-07T16:34:48.955Z,2.20
2018-04-07T16:37:17.038Z,2.10
2018-04-07T16:39:44.800Z,2.57
2018-04-07T16:42:12.556Z,2.43
2018-04-07T16:44:43.515Z,2.93
2018-04-07T16:47:11.235Z,2.63
2018-04-07T16:49:38.915Z,2.70
2018-04-07T16:52:06.534Z,3.20
2018-04-07T16:54:34.284Z,2.50
2018-04-07T16:57:01.928Z,2.67
2018-04-07T16:59:29.606Z,2.80
2018-04-07T17:01:57.447Z,2.47
2018-04-07T17:04:25.597Z,2.17
2018-04-07T17:06:53.620Z,2.50
2018-04-07T17:09:21.255Z,2.50
2018-04-07T17:11:48.952Z,2.33
2018-04-07T17:14:16.567Z,2.90
2018-04-07T17:16:44.219Z,3.27
2018-04-07T17:19:11.814Z,2.90
2018-04-07T17:21:39.731Z,2.93
2018-04-07T17:24:08.140Z,2.80
2018-04-07T17:26:35.830Z,3.20
2018-04-07T17:29:03.501Z,2.90
2018-04-07T17:31:31.128Z,3.30
2018-04-07T17:33:59.556Z,3.00
2018-04-07T17:36:27.291Z,3.10
2018-04-07T17:38:54.943Z,2.97
2018-04-07T17:41:22.568Z,3.30
2018-04-07T17:43:50.227Z,2.80
2018-04-07T17:46:17.919Z,2.60
2018-04-07T17:48:45.607Z,2.90
2018-04-07T17:51:13.267Z,2.63
2018-04-07T17:53:40.866Z,2.80
2018-04-07T17:56:08.498Z,2.70
2018-04-07T17:58:36.148Z,2.60
2018-04-07T18:01:03.831Z,2.30
2018-04-07T18:03:31.483Z,2.17
2018-04-07T18:05:59.919Z,2.90
2018-04-07T18:08:27.585Z,2.60
2018-04-07T18:10:55.283Z,2.07
2018-04-07T18:13:22.940Z,2.13
2018-04-07T18:15:50.573Z,1.97
2018-04-07T18:18:18.227Z,1.80
2018-04-07T18:20:45.877Z,2.37
2018-04-07T18:23:13.554Z,1.93
2018-04-07T18:25:41.215Z,2.00
2018-04-07T18:28:09.037Z,1.93
2018-04-07T18:30:36.675Z,2.17
2018-04-07T18:36:00.463Z,2.23
2018-04-07T18:38:28.142Z,1.90
2018-04-07T18:40:57.078Z,2.10
2018-04-07T18:43:25.865Z,2.20
2018-04-07T18:45:54.329Z,2.10
2018-04-07T18:48:22.092Z,2.27
2018-04-07T18:50:49.770Z,2.13
2018-04-07T18:53:25.569Z,1.97
2018-04-07T18:55:54.275Z,1.97
2018-04-07T18:58:23.447Z,1.93
2018-04-07T19:00:51.253Z,2.10
2018-04-07T19:03:19.003Z,2.07
2018-04-07T19:05:46.698Z,2.07
2018-04-07T19:08:14.428Z,2.37
2018-04-07T19:10:42.187Z,2.43
2018-04-07T19:13:09.889Z,2.33
2018-04-07T19:15:37.829Z,2.33
2018-04-07T19:18:06.231Z,2.40
2018-04-07T19:20:34.865Z,3.17
2018-04-07T19:23:21.284Z,2.83
2018-04-07T19:25:49.073Z,2.80
2018-04-07T19:28:16.759Z,2.70
2018-04-07T19:30:44.539Z,2.60
2018-04-07T19:33:12.205Z,2.10
2018-04-07T19:35:39.918Z,2.60
2018-04-07T19:38:07.701Z,2.43
2018-04-07T19:40:35.410Z,1.90
2018-04-07T19:43:03.951Z,2.00
2018-04-07T19:45:31.713Z,2.00
2018-04-07T19:47:59.527Z,2.10
2018-04-07T19:50:28.122Z,2.13
2018-04-07T19:52:55.931Z,2.90
2018-04-07T19:55:24.473Z,2.77
2018-04-07T19:57:52.158Z,3.17
2018-04-07T20:00:19.902Z,2.50
2018-04-07T20:02:47.617Z,2.40
2018-04-07T20:05:16.062Z,2.57
2018-04-07T20:07:43.769Z,2.30
2018-04-07T20:10:11.535Z,3.07
2018-04-07T20:12:39.229Z,2.73
2018-04-07T20:15:06.951Z,2.80
2018-04-07T20:17:36.698Z,2.83
2018-04-07T20:20:04.650Z,2.90
2018-04-07T20:22:33.398Z,3.10
2018-04-07T20:25:02.383Z,2.97
2018-04-07T20:27:31.994Z,3.10
2018-04-07T20:29:59.710Z,3.20
2018-04-07T20:32:28.185Z,3.67
2018-04-07T20:34:56.256Z,4.10
2018-04-07T20:37:25.035Z,3.73
2018-04-07T20:39:53.040Z,3.67
2018-04-07T20:42:28.469Z,3.60
2018-04-07T20:44:56.994Z,3.20
2018-04-07T20:47:25.512Z,3.60
2018-04-07T20:49:53.168Z,3.63
2018-04-07T20:52:21.603Z,4.27
2018-04-07T20:54:49.419Z,3.87
2018-04-07T20:57:17.248Z,4.00
2018-04-07T20:59:44.874Z,3.93
2018-04-07T21:02:13.246Z,4.27
2018-04-07T21:04:41.065Z,4.10
2018-04-07T21:07:09.454Z,4.20
2018-04-07T21:09:37.230Z,4.03
2018-04-07T21:12:04.902Z,4.50
2018-04-07T21:14:33.304Z,4.03
2018-04-07T21:17:01.115Z,4.17
2018-04-07T21:19:28.746Z,3.87
2018-04-07T21:21:57.190Z,4.30
2018-04-07T21:24:24.819Z,4.10
2018-04-07T21:26:52.422Z,3.83
2018-04-07T21:29:20.838Z,4.10
2018-04-07T21:31:48.460Z,3.80
2018-04-07T21:34:16.127Z,3.53
2018-04-07T21:36:43.774Z,3.70
2018-04-07T21:39:12.194Z,3.37
2018-04-07T21:41:40.604Z,3.67
2018-04-07T21:44:08.980Z,3.67
2018-04-07T21:46:46.595Z,3.63
2018-04-07T21:49:14.253Z,4.00
2018-04-07T21:51:42.349Z,3.53
2018-04-07T21:54:10.374Z,3.80
2018-04-07T21:56:38.040Z,4.20
2018-04-07T21:59:05.730Z,4.10
2018-04-07T22:01:33.378Z,3.80
2018-04-07T22:04:01.092Z,4.73
2018-04-07T22:06:28.736Z,4.23
2018-04-07T22:08:57.203Z,4.20
2018-04-07T22:11:24.846Z,3.90
2018-04-07T22:13:52.523Z,4.40
2018-04-07T22:16:20.914Z,4.27
2018-04-07T22:18:48.538Z,4.40
2018-04-07T22:21:16.179Z,4.43
2018-04-07T22:23:43.830Z,4.20
2018-04-07T22:26:11.521Z,4.10
2018-04-07T22:28:39.149Z,4.03
2018-04-07T22:31:07.703Z,4.70
2018-04-07T22:33:35.359Z,4.23
2018-04-07T22:36:03.064Z,4.23
2018-04-07T22:38:30.702Z,4.33
2018-04-07T22:40:58.341Z,4.43
2018-04-07T22:43:26.019Z,4.17
2018-04-07T22:45:53.662Z,3.90
2018-04-07T22:48:21.300Z,4.37
2018-04-07T22:50:48.968Z,4.60
2018-04-07T22:53:16.578Z,4.27
2018-04-07T22:55:44.228Z,4.40
2018-04-07T22:58:12.642Z,4.33
2018-04-07T23:00:40.306Z,4.67
2018-04-07T23:03:07.931Z,4.90
2018-04-07T23:05:35.575Z,4.47
2018-04-07T23:08:03.211Z,4.67
2018-04-07T23:10:30.821Z,4.70
2018-04-07T23:12:58.505Z,4.50
2018-04-07T23:15:26.141Z,5.03
2018-04-07T23:17:54.568Z,4.27
2018-04-07T23:20:22.186Z,4.10
2018-04-07T23:22:49.860Z,4.20
2018-04-07T23:25:17.493Z,4.47
2018-04-07T23:27:45.863Z,4.70
2018-04-07T23:30:13.480Z,4.30
2018-04-07T23:32:41.887Z,4.80
2018-04-07T23:35:09.521Z,4.60
2018-04-07T23:37:37.139Z,4.67
2018-04-07T23:40:04.806Z,4.50
2018-04-07T23:42:32.443Z,5.00
2018-04-07T23:45:00.901Z,5.03
2018-04-07T23:47:28.587Z,4.63
2018-04-07T23:49:56.232Z,5.53
2018-04-07T23:52:24.644Z,5.43
2018-04-07T23:54:52.251Z,5.30
2018-04-07T23:57:19.903Z,5.17
2018-04-07T23:59:48.306Z,5.37
